createdAt,value
2023-01-13T00:02:24.736Z,0.30
2023-01-13T00:04:51.396Z,0.30
2023-01-13T00:07:18.416Z,0.30
2023-01-13T00:09:44.944Z,0.20
2023-01-13T00:12:11.533Z,0.22
2023-01-13T00:14:38.080Z,0.20
2023-01-13T00:17:04.872Z,0.30
2023-01-13T00:19:31.456Z,0.20
2023-01-13T00:21:58.085Z,0.30
2023-01-13T00:24:24.827Z,0.22
2023-01-13T00:26:52.628Z,0.20
2023-01-13T00:29:19.153Z,0.20
2023-01-13T00:31:45.761Z,0.20
2023-01-13T00:34:12.748Z,0.20
2023-01-13T00:36:39.241Z,0.20
2023-01-13T00:39:06.202Z,0.20
2023-01-13T00:41:52.749Z,0.10
2023-01-13T00:44:19.603Z,0.20
2023-01-13T00:46:46.252Z,0.30
2023-01-13T00:49:12.857Z,0.20
2023-01-13T00:51:39.327Z,0.20
2023-01-13T00:54:06.764Z,0.22
2023-01-13T00:56:40.091Z,0.20
2023-01-13T00:59:10.401Z,0.30
2023-01-13T01:01:37.148Z,0.50
2023-01-13T01:04:03.859Z,0.10
2023-01-13T01:06:30.449Z,0.20
2023-01-13T01:08:58.064Z,0.10
2023-01-13T01:11:28.147Z,0.23
2023-01-13T01:13:56.586Z,0.30
2023-01-13T01:16:25.669Z,0.30
2023-01-13T01:18:53.752Z,0.20
2023-01-13T01:21:22.246Z,0.25
2023-01-13T01:23:49.012Z,0.10
2023-01-13T01:26:20.778Z,0.20
2023-01-13T01:28:47.636Z,0.20
2023-01-13T01:31:17.288Z,0.20
2023-01-13T01:33:47.380Z,0.20
2023-01-13T01:36:15.893Z,0.20
2023-01-13T01:38:43.081Z,0.20
2023-01-13T01:41:17.112Z,0.20
2023-01-13T01:44:06.784Z,0.20
2023-01-13T01:46:38.728Z,0.10
2023-01-13T01:49:16.068Z,0.20
2023-01-13T01:51:50.021Z,0.20
2023-01-13T01:54:22.529Z,0.20
2023-01-13T01:56:49.631Z,0.20
2023-01-13T01:59:17.369Z,0.20
2023-01-13T02:01:45.462Z,0.20
2023-01-13T02:04:22.626Z,0.20
2023-01-13T02:06:50.542Z,0.20
2023-01-13T02:09:17.572Z,0.30
2023-01-13T02:12:02.848Z,0.20
2023-01-13T02:14:30.814Z,0.10
2023-01-13T02:17:06.952Z,0.20
2023-01-13T02:19:53.299Z,0.20
2023-01-13T02:22:25.696Z,0.20
2023-01-13T02:25:19.046Z,0.20
2023-01-13T02:27:58.079Z,0.20
2023-01-13T02:30:59.160Z,0.10
2023-01-13T02:33:50.451Z,0.17
2023-01-13T02:36:27.997Z,0.15
2023-01-13T02:39:00.896Z,0.20
2023-01-13T02:42:04.914Z,0.20
2023-01-13T02:44:43.670Z,0.20
2023-01-13T02:47:24.688Z,0.10
2023-01-13T02:50:17.327Z,0.20
2023-01-13T02:52:51.103Z,0.35
2023-01-13T02:55:22.017Z,0.20
2023-01-13T02:57:49.725Z,0.20
2023-01-13T03:00:17.589Z,0.20
2023-01-13T03:02:48.588Z,0.20
2023-01-13T03:05:16.124Z,0.20
2023-01-13T03:08:01.348Z,0.20
2023-01-13T03:10:44.708Z,0.13
2023-01-13T03:13:32.828Z,0.13
2023-01-13T03:16:25.713Z,0.20
2023-01-13T03:19:13.940Z,0.13
2023-01-13T03:22:18.217Z,0.10
2023-01-13T03:24:51.744Z,0.10
2023-01-13T03:27:40.556Z,0.10
2023-01-13T03:30:18.441Z,0.10
2023-01-13T03:32:57.112Z,0.10
2023-01-13T03:35:34.154Z,0.10
2023-01-13T03:38:06.458Z,0.10
2023-01-13T03:40:39.137Z,0.20
2023-01-13T03:43:29.910Z,0.10
2023-01-13T03:46:04.430Z,0.17
2023-01-13T03:48:34.129Z,0.10
2023-01-13T03:51:06.481Z,0.10
2023-01-13T03:53:49.344Z,0.10
2023-01-13T03:56:20.558Z,0.10
2023-01-13T03:58:49.751Z,0.10
2023-01-13T04:01:42.103Z,0.03
2023-01-13T04:04:34.425Z,0.10
2023-01-13T04:07:14.781Z,0.10
2023-01-13T04:09:52.544Z,0.10
2023-01-13T04:12:53.001Z,0.10
2023-01-13T04:15:22.988Z,0.10
2023-01-13T04:17:50.871Z,0.00
2023-01-13T04:20:17.813Z,0.10
2023-01-13T04:22:44.384Z,0.10
2023-01-13T04:25:11.515Z,0.10
2023-01-13T04:27:38.201Z,0.10
2023-01-13T04:30:05.718Z,0.10
2023-01-13T04:32:32.250Z,0.10
2023-01-13T04:34:58.835Z,0.10
2023-01-13T04:37:25.440Z,0.20
2023-01-13T04:39:52.089Z,0.10
2023-01-13T04:42:18.583Z,0.10
2023-01-13T04:44:45.167Z,0.10
2023-01-13T04:47:11.815Z,0.10
2023-01-13T04:49:38.649Z,0.10
2023-01-13T04:52:07.211Z,0.10
2023-01-13T04:54:33.803Z,0.10
2023-01-13T04:57:00.470Z,0.20
2023-01-13T04:59:27.367Z,0.10
2023-01-13T05:01:54.175Z,0.20
2023-01-13T05:04:21.425Z,0.10
2023-01-13T05:06:47.912Z,0.10
2023-01-13T05:09:15.777Z,0.10
2023-01-13T05:12:00.913Z,0.10
2023-01-13T05:14:46.315Z,0.10
2023-01-13T05:17:21.046Z,0.10
2023-01-13T05:19:47.732Z,0.10
2023-01-13T05:22:33.621Z,0.13
2023-01-13T05:25:18.646Z,0.10
2023-01-13T05:27:45.376Z,0.10
2023-01-13T05:30:12.257Z,0.13
2023-01-13T05:32:38.841Z,0.10
2023-01-13T05:35:05.693Z,0.10
2023-01-13T05:37:32.921Z,0.20
2023-01-13T05:40:17.849Z,0.10
2023-01-13T05:43:02.781Z,0.20
2023-01-13T05:45:31.503Z,0.13
2023-01-13T05:47:58.552Z,0.10
2023-01-13T05:50:25.392Z,0.20
2023-01-13T05:52:52.023Z,0.13
2023-01-13T05:55:18.571Z,0.55
2023-01-13T05:57:45.125Z,0.30
2023-01-13T06:00:12.600Z,0.20
2023-01-13T06:02:39.181Z,0.30
2023-01-13T06:05:05.973Z,0.47
2023-01-13T06:07:33.055Z,0.30
2023-01-13T06:09:59.553Z,0.70
2023-01-13T06:12:26.200Z,0.30
2023-01-13T06:14:52.785Z,0.30
2023-01-13T06:17:19.320Z,0.60
2023-01-13T06:19:45.940Z,0.33
2023-01-13T06:22:23.988Z,0.40
2023-01-13T06:24:53.457Z,0.30
2023-01-13T06:27:22.316Z,0.50
2023-01-13T06:29:49.508Z,0.40
2023-01-13T06:32:25.777Z,0.30
2023-01-13T06:34:58.691Z,0.35
2023-01-13T06:37:27.258Z,0.60
2023-01-13T06:39:58.507Z,0.93
2023-01-13T06:42:46.884Z,0.50
2023-01-13T06:45:13.751Z,0.70
2023-01-13T06:47:41.866Z,0.50
2023-01-13T06:50:09.699Z,0.40
2023-01-13T06:52:36.291Z,0.50
2023-01-13T06:55:04.101Z,0.45
2023-01-13T06:57:30.570Z,0.30
2023-01-13T06:59:57.080Z,0.40
2023-01-13T07:02:23.683Z,0.50
2023-01-13T07:04:50.270Z,0.40
2023-01-13T07:07:16.812Z,0.30
2023-01-13T07:09:43.438Z,0.40
2023-01-13T07:12:09.937Z,0.50
2023-01-13T07:14:54.773Z,0.50
2023-01-13T07:17:25.075Z,0.35
2023-01-13T07:19:53.079Z,0.40
2023-01-13T07:22:19.713Z,0.30
2023-01-13T07:24:46.248Z,0.45
2023-01-13T07:27:12.907Z,0.30
2023-01-13T07:29:39.715Z,0.43
2023-01-13T07:32:07.766Z,0.30
2023-01-13T07:34:34.325Z,0.30
2023-01-13T07:37:01.350Z,0.20
2023-01-13T07:39:28.232Z,0.28
2023-01-13T07:42:13.520Z,0.40
2023-01-13T07:44:40.061Z,0.30
2023-01-13T07:47:08.475Z,0.37
2023-01-13T07:49:34.986Z,0.30
2023-01-13T07:52:01.790Z,0.30
2023-01-13T07:54:40.152Z,0.30
2023-01-13T07:57:07.682Z,0.40
2023-01-13T07:59:34.307Z,0.50
2023-01-13T08:02:01.090Z,0.30
2023-01-13T08:04:27.949Z,0.30
2023-01-13T08:06:54.679Z,0.30
2023-01-13T08:09:21.235Z,0.40
2023-01-13T08:12:07.812Z,0.50
2023-01-13T08:14:34.445Z,0.50
2023-01-13T08:17:01.218Z,0.30
2023-01-13T08:19:27.782Z,0.55
2023-01-13T08:21:54.456Z,0.30
2023-01-13T08:24:21.005Z,0.30
2023-01-13T08:26:47.526Z,0.20
2023-01-13T08:29:15.174Z,0.20
2023-01-13T08:31:41.835Z,0.20
2023-01-13T08:34:08.620Z,0.20
2023-01-13T08:36:35.173Z,0.20
2023-01-13T08:39:01.845Z,0.20
2023-01-13T08:41:46.691Z,0.10
2023-01-13T08:44:13.291Z,0.20
2023-01-13T08:46:41.724Z,0.10
2023-01-13T08:49:08.335Z,0.17
2023-01-13T08:51:34.974Z,0.10
2023-01-13T08:54:02.137Z,0.20
2023-01-13T08:56:29.879Z,0.10
2023-01-13T08:59:00.515Z,0.50
2023-01-13T09:01:27.313Z,0.30
2023-01-13T09:03:54.787Z,0.20
2023-01-13T09:06:21.517Z,0.20
2023-01-13T09:08:48.214Z,0.17
2023-01-13T09:11:49.064Z,0.20
2023-01-13T09:14:23.565Z,0.10
2023-01-13T09:16:50.121Z,0.10
2023-01-13T09:19:16.802Z,0.30
2023-01-13T09:21:43.306Z,0.17
2023-01-13T09:24:09.962Z,0.20
2023-01-13T09:26:37.706Z,0.30
2023-01-13T09:29:05.208Z,0.20
2023-01-13T09:31:34.624Z,0.20
2023-01-13T09:34:20.689Z,0.30
2023-01-13T09:36:48.124Z,0.43
2023-01-13T09:39:15.483Z,0.20
2023-01-13T09:42:06.883Z,0.30
2023-01-13T09:45:12.165Z,0.40
2023-01-13T09:47:45.298Z,0.20
2023-01-13T09:50:14.656Z,0.60
2023-01-13T09:52:43.227Z,1.40
2023-01-13T09:55:19.568Z,1.17
2023-01-13T09:57:46.161Z,0.45
2023-01-13T10:00:24.890Z,0.50
2023-01-13T10:03:01.444Z,0.50
2023-01-13T10:05:34.471Z,1.00
2023-01-13T10:08:12.309Z,0.57
2023-01-13T10:10:45.520Z,0.55
2023-01-13T10:13:20.569Z,0.30
2023-01-13T10:15:56.191Z,0.77
2023-01-13T10:18:35.629Z,0.30
2023-01-13T10:21:30.354Z,0.40
2023-01-13T10:24:19.174Z,0.40
2023-01-13T10:27:07.440Z,0.40
2023-01-13T10:29:36.666Z,0.30
2023-01-13T10:32:03.461Z,0.20
2023-01-13T10:34:30.193Z,0.20
2023-01-13T10:37:03.461Z,0.25
2023-01-13T10:39:40.020Z,0.40
2023-01-13T10:42:13.679Z,0.20
2023-01-13T10:44:52.985Z,0.30
2023-01-13T10:47:37.446Z,0.15
2023-01-13T10:50:26.943Z,0.40
2023-01-13T10:53:17.443Z,0.13
2023-01-13T10:55:44.127Z,0.20
2023-01-13T10:58:17.488Z,0.20
2023-01-13T11:00:44.497Z,0.13
2023-01-13T11:03:16.804Z,0.20
2023-01-13T11:05:55.520Z,0.28
2023-01-13T11:08:45.119Z,0.40
2023-01-13T11:11:37.099Z,0.20
2023-01-13T11:14:32.084Z,0.20
2023-01-13T11:17:02.924Z,0.20
2023-01-13T11:19:31.700Z,0.20
2023-01-13T11:22:01.667Z,0.10
2023-01-13T11:24:54.411Z,0.30
2023-01-13T11:27:57.855Z,0.20
2023-01-13T11:30:53.807Z,0.20
2023-01-13T11:33:27.330Z,0.30
2023-01-13T11:36:06.256Z,0.20
2023-01-13T11:38:41.924Z,0.20
2023-01-13T11:41:24.944Z,0.28
2023-01-13T11:44:06.290Z,0.20
2023-01-13T11:46:33.181Z,0.20
2023-01-13T11:49:00.865Z,0.10
2023-01-13T11:51:43.355Z,0.20
2023-01-13T11:54:31.634Z,0.30
2023-01-13T11:57:13.143Z,0.20
2023-01-13T11:59:56.748Z,0.20
2023-01-13T12:02:52.195Z,0.20
2023-01-13T12:05:39.352Z,0.20
2023-01-13T12:08:20.755Z,0.30
2023-01-13T12:11:00.098Z,0.45
2023-01-13T12:13:48.153Z,0.47
2023-01-13T12:16:23.471Z,0.50
2023-01-13T12:19:11.239Z,0.32
2023-01-13T12:22:16.034Z,0.38
2023-01-13T12:25:13.797Z,0.30
2023-01-13T12:27:49.152Z,0.50
2023-01-13T12:31:01.929Z,0.50
2023-01-13T12:34:06.959Z,0.33
2023-01-13T12:36:52.551Z,0.43
2023-01-13T12:39:37.110Z,0.50
2023-01-13T12:42:36.635Z,0.40
2023-01-13T12:45:12.118Z,0.40
2023-01-13T12:47:43.515Z,0.40
2023-01-13T12:50:22.619Z,0.50
2023-01-13T12:52:55.023Z,0.50
2023-01-13T12:55:25.976Z,0.30
2023-01-13T12:58:10.842Z,0.38
2023-01-13T13:00:54.364Z,0.30
2023-01-13T13:03:29.102Z,0.40
2023-01-13T13:05:56.850Z,0.40
2023-01-13T13:09:03.425Z,0.80
2023-01-13T13:12:03.068Z,0.98
2023-01-13T13:14:50.291Z,0.60
2023-01-13T13:17:19.659Z,0.50
2023-01-13T13:19:48.900Z,0.70
2023-01-13T13:22:20.261Z,2.70
2023-01-13T13:24:49.876Z,1.02
2023-01-13T13:27:25.297Z,0.70
2023-01-13T13:30:15.178Z,0.40
2023-01-13T13:33:16.712Z,1.02
2023-01-13T13:35:52.186Z,0.50
2023-01-13T13:39:14.004Z,0.95
2023-01-13T13:42:04.775Z,0.70
2023-01-13T13:44:57.993Z,1.00
2023-01-13T13:47:24.864Z,1.08
2023-01-13T13:49:54.386Z,0.63
2023-01-13T13:52:32.197Z,0.77
2023-01-13T13:55:15.558Z,0.80
2023-01-13T13:57:49.408Z,0.85
2023-01-13T14:00:17.076Z,0.77
2023-01-13T14:03:00.392Z,0.52
2023-01-13T14:05:30.963Z,0.60
2023-01-13T14:08:12.776Z,0.70
2023-01-13T14:10:41.351Z,0.40
2023-01-13T14:13:26.987Z,0.60
2023-01-13T14:16:03.268Z,0.40
2023-01-13T14:18:33.901Z,0.40
2023-01-13T14:21:05.668Z,0.30
2023-01-13T14:23:33.494Z,0.40
2023-01-13T14:26:08.548Z,0.45
2023-01-13T14:28:39.574Z,0.50
2023-01-13T14:31:07.958Z,0.40
2023-01-13T14:33:34.832Z,0.50
2023-01-13T14:36:10.917Z,0.40
2023-01-13T14:38:37.991Z,0.47
2023-01-13T14:41:22.887Z,0.45
2023-01-13T14:43:51.684Z,0.40
2023-01-13T14:46:19.230Z,0.40
2023-01-13T14:48:47.945Z,0.40
2023-01-13T14:51:23.832Z,0.80
2023-01-13T14:53:50.811Z,0.60
2023-01-13T14:56:49.809Z,0.60
2023-01-13T14:59:35.123Z,1.00
2023-01-13T15:02:23.155Z,0.60
2023-01-13T15:04:53.787Z,0.57
2023-01-13T15:07:26.325Z,0.80
2023-01-13T15:10:02.351Z,0.70
2023-01-13T15:12:40.613Z,0.60
2023-01-13T15:15:19.804Z,0.80
2023-01-13T15:17:46.822Z,1.17
2023-01-13T15:20:14.328Z,0.90
2023-01-13T15:22:41.507Z,1.52
2023-01-13T15:25:11.964Z,1.13
2023-01-13T15:27:39.133Z,1.02
2023-01-13T15:30:18.024Z,0.68
2023-01-13T15:32:44.640Z,2.15
2023-01-13T15:35:16.437Z,1.70
2023-01-13T15:37:44.424Z,1.90
2023-01-13T15:40:16.982Z,1.45
2023-01-13T15:43:02.044Z,1.70
2023-01-13T15:45:47.175Z,1.05
2023-01-13T15:48:13.819Z,1.52
2023-01-13T15:50:40.453Z,3.20
2023-01-13T15:53:07.354Z,2.90
2023-01-13T15:55:37.184Z,1.98
2023-01-13T15:58:03.950Z,1.38
2023-01-13T16:00:30.925Z,1.38
2023-01-13T16:02:57.657Z,2.03
2023-01-13T16:05:24.733Z,0.80
2023-01-13T16:07:51.499Z,1.10
2023-01-13T16:10:26.918Z,0.98
2023-01-13T16:12:55.810Z,0.60
2023-01-13T16:15:24.807Z,1.00
2023-01-13T16:18:03.392Z,1.05
2023-01-13T16:20:30.659Z,1.20
2023-01-13T16:22:57.247Z,0.80
2023-01-13T16:25:26.349Z,0.80
2023-01-13T16:27:53.850Z,0.50
2023-01-13T16:30:26.914Z,0.60
2023-01-13T16:32:55.006Z,0.60
2023-01-13T16:35:22.673Z,0.70
2023-01-13T16:37:49.567Z,0.60
2023-01-13T16:40:23.272Z,0.60
2023-01-13T16:42:50.205Z,0.82
2023-01-13T16:45:17.623Z,0.75
2023-01-13T16:47:45.250Z,0.80
2023-01-13T16:50:23.480Z,0.82
2023-01-13T16:52:50.097Z,0.60
2023-01-13T16:55:16.681Z,0.70
2023-01-13T16:57:43.624Z,0.70
2023-01-13T17:00:12.482Z,0.70
2023-01-13T17:02:39.201Z,0.40
2023-01-13T17:05:06.759Z,0.67
2023-01-13T17:07:33.621Z,0.40
2023-01-13T17:10:00.286Z,0.50
2023-01-13T17:12:27.338Z,0.50
2023-01-13T17:14:53.901Z,0.70
2023-01-13T17:17:23.981Z,0.52
2023-01-13T17:19:52.074Z,0.95
2023-01-13T17:22:19.470Z,0.57
2023-01-13T17:24:48.603Z,1.10
2023-01-13T17:27:17.220Z,1.00
2023-01-13T17:29:43.836Z,0.87
2023-01-13T17:32:16.573Z,0.82
2023-01-13T17:34:44.296Z,2.47
2023-01-13T17:37:14.520Z,9.70
2023-01-13T17:39:44.065Z,9.20
2023-01-13T17:42:11.322Z,4.78
2023-01-13T17:44:38.255Z,2.30
2023-01-13T17:47:05.679Z,0.73
2023-01-13T17:49:32.701Z,1.92
2023-01-13T17:51:59.405Z,2.08
2023-01-13T17:54:26.306Z,0.85
2023-01-13T17:56:52.891Z,1.70
2023-01-13T17:59:20.056Z,1.20
2023-01-13T18:01:46.706Z,0.70
2023-01-13T18:04:18.621Z,1.80
2023-01-13T18:06:45.776Z,1.97
2023-01-13T18:09:12.524Z,2.67
2023-01-13T18:11:41.718Z,1.00
2023-01-13T18:14:09.796Z,2.35
2023-01-13T18:16:36.516Z,0.60
2023-01-13T18:19:22.074Z,0.90
2023-01-13T18:22:08.183Z,1.27
2023-01-13T18:24:53.556Z,1.30
2023-01-13T18:27:28.709Z,1.23
2023-01-13T18:29:57.702Z,0.70
2023-01-13T18:32:32.669Z,1.00
2023-01-13T18:35:06.119Z,0.60
2023-01-13T18:37:35.871Z,1.02
2023-01-13T18:40:03.362Z,0.85
2023-01-13T18:42:48.897Z,1.50
2023-01-13T18:45:15.460Z,0.83
2023-01-13T18:47:43.088Z,0.60
2023-01-13T18:50:12.187Z,0.60
2023-01-13T18:52:38.745Z,0.75
2023-01-13T18:55:05.654Z,0.90
2023-01-13T18:57:33.191Z,1.57
2023-01-13T19:00:00.589Z,0.93
2023-01-13T19:02:29.881Z,0.80
2023-01-13T19:04:57.176Z,1.33
2023-01-13T19:07:27.159Z,1.10
2023-01-13T19:09:59.239Z,0.77
2023-01-13T19:12:26.411Z,0.60
2023-01-13T19:14:56.816Z,0.70
2023-01-13T19:17:25.385Z,0.65
2023-01-13T19:19:54.424Z,0.60
2023-01-13T19:22:27.060Z,1.10
2023-01-13T19:24:53.750Z,0.82
2023-01-13T19:27:21.710Z,0.80
2023-01-13T19:29:52.420Z,0.60
2023-01-13T19:32:22.488Z,0.50
2023-01-13T19:34:50.994Z,0.80
2023-01-13T19:37:18.779Z,0.60
2023-01-13T19:39:46.015Z,1.35
2023-01-13T19:42:32.123Z,0.73
2023-01-13T19:45:17.119Z,0.60
2023-01-13T19:47:45.480Z,0.85
2023-01-13T19:50:13.690Z,1.33
2023-01-13T19:52:41.420Z,1.23
2023-01-13T19:55:09.421Z,1.00
2023-01-13T19:57:36.212Z,1.20
2023-01-13T20:00:06.292Z,1.20
2023-01-13T20:02:32.995Z,1.10
2023-01-13T20:05:01.814Z,0.80
2023-01-13T20:07:30.600Z,0.93
2023-01-13T20:09:57.279Z,0.90
2023-01-13T20:12:25.579Z,1.00
2023-01-13T20:14:52.613Z,1.00
2023-01-13T20:17:21.476Z,0.70
2023-01-13T20:19:48.598Z,0.70
2023-01-13T20:22:15.414Z,0.98
2023-01-13T20:24:42.353Z,0.73
2023-01-13T20:27:08.906Z,0.63
2023-01-13T20:29:35.743Z,0.80
2023-01-13T20:32:03.445Z,0.98
2023-01-13T20:34:30.041Z,0.70
2023-01-13T20:36:56.713Z,0.67
2023-01-13T20:39:28.284Z,0.88
2023-01-13T20:42:14.103Z,0.60
2023-01-13T20:44:40.974Z,1.15
2023-01-13T20:47:07.840Z,0.65
2023-01-13T20:49:36.085Z,0.30
2023-01-13T20:52:09.088Z,0.60
2023-01-13T20:54:39.405Z,0.45
2023-01-13T20:57:08.267Z,0.60
2023-01-13T20:59:35.176Z,0.70
2023-01-13T21:02:02.779Z,0.60
2023-01-13T21:04:29.689Z,1.00
2023-01-13T21:06:56.392Z,0.70
2023-01-13T21:09:24.191Z,0.80
2023-01-13T21:12:09.724Z,0.70
2023-01-13T21:14:55.526Z,0.77
2023-01-13T21:17:40.962Z,0.73
2023-01-13T21:20:10.482Z,0.88
2023-01-13T21:22:37.210Z,0.90
2023-01-13T21:25:04.965Z,0.70
2023-01-13T21:27:32.117Z,0.90
2023-01-13T21:29:58.749Z,0.90
2023-01-13T21:32:25.836Z,0.95
2023-01-13T21:34:52.359Z,0.65
2023-01-13T21:37:18.953Z,1.00
2023-01-13T21:39:46.691Z,0.70
2023-01-13T21:42:33.361Z,0.90
2023-01-13T21:45:18.549Z,1.00
2023-01-13T21:47:48.427Z,0.70
2023-01-13T21:50:18.440Z,0.77
2023-01-13T21:52:46.459Z,0.70
2023-01-13T21:55:17.659Z,0.80
2023-01-13T21:57:48.889Z,0.80
2023-01-13T22:00:19.118Z,0.90
2023-01-13T22:02:48.749Z,0.75
2023-01-13T22:05:17.579Z,0.93
2023-01-13T22:07:45.369Z,1.17
2023-01-13T22:10:14.916Z,1.00
2023-01-13T22:12:43.481Z,0.73
2023-01-13T22:15:12.447Z,0.45
2023-01-13T22:17:39.981Z,0.57
2023-01-13T22:20:07.399Z,1.08
2023-01-13T22:22:36.779Z,0.75
2023-01-13T22:25:06.889Z,0.80
2023-01-13T22:27:39.254Z,0.65
2023-01-13T22:30:11.673Z,0.70
2023-01-13T22:32:41.447Z,0.40
2023-01-13T22:35:09.765Z,0.80
2023-01-13T22:37:37.348Z,0.88
2023-01-13T22:40:05.457Z,0.60
2023-01-13T22:42:31.974Z,0.57
2023-01-13T22:44:58.632Z,0.57
2023-01-13T22:47:25.282Z,0.75
2023-01-13T22:49:52.307Z,0.52
2023-01-13T22:52:19.472Z,0.73
2023-01-13T22:54:46.001Z,0.70
2023-01-13T22:57:12.845Z,0.80
2023-01-13T22:59:39.384Z,0.68
2023-01-13T23:02:06.045Z,1.23
2023-01-13T23:04:32.905Z,0.80
2023-01-13T23:07:00.102Z,0.60
2023-01-13T23:09:29.797Z,0.50
2023-01-13T23:11:59.764Z,0.60
2023-01-13T23:14:26.371Z,0.50
2023-01-13T23:16:53.093Z,0.90
2023-01-13T23:19:19.744Z,0.70
2023-01-13T23:21:47.285Z,1.15
2023-01-13T23:24:14.488Z,0.73
2023-01-13T23:26:41.318Z,0.88
2023-01-13T23:29:11.638Z,0.52
2023-01-13T23:31:38.499Z,0.83
2023-01-13T23:34:05.462Z,1.38
2023-01-13T23:36:32.116Z,1.10
2023-01-13T23:38:59.297Z,0.88
2023-01-13T23:41:27.608Z,0.85
2023-01-13T23:43:59.589Z,1.00
2023-01-13T23:46:28.396Z,0.80
2023-01-13T23:48:55.499Z,0.80
2023-01-13T23:51:22.992Z,1.10
2023-01-13T23:53:50.712Z,1.13
2023-01-13T23:56:25.445Z,0.90
2023-01-13T23:58:52.282Z,1.48
